• Join FlightAware (Why Join?)
  • Login
  • US Flag 
09:51AM EDT


 

Airport Tracker/Info


-or-


 

Live Flight TrackerFlight Track Log ✈ N6762E ✈ 02-May-2013 ✈ KVHP - KHAO

Flight Track Log - Related Links

Times and Time Zones

All times are in EDT time to prevent confusion due to time zone crossing. See the N6762E flight status page for this flight to view local times or setup timezone preferences in your user account.

Time Position Orientation Groundspeed Altitude Reporting Facility
EDT Latitude Longitude Course Direction KTS MPH feet Rate Location/Type
10:33PM 39.7467 -85.9917 111° Southeast 90 104 3,500  Level Indianapolis Center
10:34PM 39.7378 -85.9617 111° Southeast 90 104 3,500  Level Indianapolis Center
10:35PM 39.7297 -85.9300 108° East 90 104 3,600  Climbing Indianapolis Center
10:36PM 39.7211 -85.8981 109° East 92 106 3,500 -60 Descending Indianapolis Center
10:37PM 39.7108 -85.8700 115° Southeast 89 102 3,500  Level Indianapolis Center
10:38PM 39.7019 -85.8386 110° East 90 104 3,500  Level Indianapolis Center
10:39PM 39.6919 -85.8092 114° Southeast 90 104 3,500  Level Indianapolis Center
10:40PM 39.6814 -85.7800 115° Southeast 89 102 3,500  Level Indianapolis Center
10:41PM 39.6722 -85.7489 111° Southeast 90 104 3,500  Level Indianapolis Center
10:42PM 39.6636 -85.7178 110° East 91 105 3,600  Climbing Indianapolis Center
10:43PM 39.6533 -85.6903 116° Southeast 87 100 3,600  Level Indianapolis Center
10:44PM 39.6461 -85.6594 107° East 87 100 3,600  Level Indianapolis Center
10:45PM 39.6381 -85.6283 109° East 89 102 3,600 -60 Level Indianapolis Center
10:46PM 39.6264 -85.5986 117° Southeast 90 104 3,500 -60 Descending Indianapolis Center
10:47PM 39.6144 -85.5633 114° Southeast 91 105 3,500 -60 Level Indianapolis Center
10:48PM 39.6056 -85.5331 111° Southeast 90 104 3,400  Descending Indianapolis Center
10:50PM 39.5958 -85.5044 114° Southeast 88 101 3,500  Climbing Indianapolis Center
10:51PM 39.5850 -85.4761 116° Southeast 86 99 3,500  Level Indianapolis Center
10:52PM 39.5761 -85.4481 112° Southeast 85 98 3,500  Level Indianapolis Center
10:53PM 39.5683 -85.4178 108° East 86 99 3,500  Level Indianapolis Center
10:54PM 39.5628 -85.3889 104° East 84 97 3,500  Level Indianapolis Center
10:55PM 39.5514 -85.3592 116° Southeast 87 100 3,500  Level Indianapolis Center
10:56PM 39.5425 -85.3319 113° Southeast 85 98 3,500  Level Indianapolis Center
10:57PM 39.5339 -85.3014 110° East 87 100 3,500  Level Indianapolis Center
10:58PM 39.5297 -85.2708 100° East 87 100 3,500  Level Indianapolis Center
10:59PM 39.5267 -85.2397 97° East 86 99 3,500  Level Indianapolis Center
11:00PM 39.5217 -85.2106 103° East 84 97 3,600  Climbing Indianapolis Center
11:01PM 39.5181 -85.1728 97° East 87 100 3,600  Level Indianapolis Center
11:02PM 39.5128 -85.1419 103° East 88 101 3,600  Level Indianapolis Center
11:03PM 39.5053 -85.1133 109° East 85 98 3,600  Level Indianapolis Center
11:04PM 39.4972 -85.0836 109° East 87 100 3,600  Level Indianapolis Center
11:05PM 39.4883 -85.0553 112° Southeast 85 98 3,600  Level Indianapolis Center
11:06PM 39.4800 -85.0275 111° Southeast 84 97 3,600  Level Indianapolis Center
11:07PM 39.4733 -84.9986 107° East 83 96 3,600  Level Indianapolis Center
11:08PM 39.4669 -84.9681 105° East 85 98 3,600  Level Indianapolis Center
11:09PM 39.4681 -84.9367 87° East 85 98 3,600 -60 Level Indianapolis Center
11:10PM 39.4644 -84.9064 99° East 85 98 3,500  Descending Indianapolis Center
11:11PM 39.4608 -84.8728 98° East 86 99 3,600  Climbing Indianapolis Center
11:12PM 39.4542 -84.8444 107° East 83 96 3,500 -120 Descending Indianapolis Center
11:13PM 39.4489 -84.8139 103° East 89 102 3,400 -120 Descending Indianapolis Center